M I D A S
Marine Information and Data Acquisition System
Tripno 748 of the Zeeleeuw from 2004-07-14 06:30:53 to 2004-07-14 14:45:08
Back to CruiseResearch ActivitiesStationsMapUnderway DataData graphs

EquipmentUnitsComment
TimeDGPSUTC
LatitudeDGPSDM.mWGS84
LongitudeDGPSDM.mWGS84
HeadingGyrodeg 
SOGDGPSknotsSpeed over ground
COGDGPSdegCourse over ground
DepthEcho soundermeters200 kHz
Missing or incorrect values are displayed as -999
Navigation data collected by the RV Zeeleeuw from 2004-07-14 06:30:53 to 2004-07-14 14:45:08
                                                                                    Next 1000 lines
Time Latitude Longitude Heading SOG COG Depth
2004-07-14 06:31:00 51°13.606 2°56.058 118.3 3.3 296 -999
2004-07-14 06:31:05 51°13.608 2°56.051 118.3 3.6 296 -999
2004-07-14 06:31:09 51°13.61 2°56.045 118.3 3.7 295 -999
2004-07-14 06:31:15 51°13.613 2°56.036 118.1 3.9 296 -999
2004-07-14 06:31:20 51°13.615 2°56.028 117.9 4 295 -999
2004-07-14 06:31:25 51°13.617 2°56.019 117.6 4.1 294 -999
2004-07-14 06:31:31 51°13.621 2°56.009 117.5 4.3 294 -999
2004-07-14 06:31:35 51°13.623 2°56.002 117.3 4.4 294 -999
2004-07-14 06:31:40 51°13.625 2°55.993 117.3 4.5 294 -999
2004-07-14 06:31:45 51°13.628 2°55.984 117.4 4.6 294 -999
2004-07-14 06:31:49 51°13.63 2°55.976 117.6 4.7 294 -999
2004-07-14 06:31:55 51°13.633 2°55.965 117.6 4.7 294 -999
2004-07-14 06:32:00 51°13.636 2°55.955 117.3 4.7 294 -999
2004-07-14 06:32:05 51°13.638 2°55.946 116.8 4.7 294 -999
2004-07-14 06:32:11 51°13.641 2°55.934 116.3 4.7 293 -999
2004-07-14 06:32:15 51°13.643 2°55.927 115.7 4.7 293 -999
2004-07-14 06:32:20 51°13.646 2°55.917 114.9 4.7 293 -999
2004-07-14 06:32:25 51°13.648 2°55.908 114 4.7 293 -999
2004-07-14 06:32:29 51°13.65 2°55.9 113 4.7 292 -999
2004-07-14 06:32:35 51°13.653 2°55.888 111.6 4.7 291 -999
2004-07-14 06:32:40 51°13.655 2°55.879 109.9 4.7 289 -999
2004-07-14 06:32:45 51°13.657 2°55.869 107.9 4.7 288 -999
2004-07-14 06:32:51 51°13.659 2°55.857 105.6 4.6 285 -999
2004-07-14 06:32:55 51°13.66 2°55.849 103.6 4.6 282 -999
2004-07-14 06:33:00 51°13.661 2°55.839 100.5 4.6 280 -999
2004-07-14 06:33:05 51°13.662 2°55.829 97.9 4.6 278 -999
2004-07-14 06:33:10 51°13.663 2°55.818 95.5 4.6 275 -999
2004-07-14 06:33:15 51°13.663 2°55.808 93.3 4.6 272 -999
2004-07-14 06:33:20 51°13.663 2°55.798 91 4.6 270 -999
2004-07-14 06:33:25 51°13.663 2°55.788 88.9 4.4 269 -999
2004-07-14 06:33:29 51°13.663 2°55.781 87 4.1 267 -999
2004-07-14 06:33:35 51°13.662 2°55.771 85.6 3.6 267 -999
2004-07-14 06:33:40 51°13.662 2°55.764 83.7 3 264 -999
2004-07-14 06:33:45 51°13.662 2°55.759 80.7 2.5 264 10.5
2004-07-14 06:33:48 51°13.661 2°55.757 77.6 1.5 263 10.4
2004-07-14 06:33:55 51°13.661 2°55.755 74.3 0.8 275 10.4
2004-07-14 06:33:59 51°13.662 2°55.755 69.2 0.5 22 10.5
2004-07-14 06:34:05 51°13.664 2°55.757 62.4 1.1 35 10.5
2004-07-14 06:34:09 51°13.665 2°55.759 54.2 2 35 10.6
2004-07-14 06:34:15 51°13.669 2°55.762 45.4 2.5 31 10.4
2004-07-14 06:34:20 51°13.673 2°55.765 36.6 3.3 23 11
2004-07-14 06:34:25 51°13.679 2°55.767 27.8 3.7 15 11.7
2004-07-14 06:34:29 51°13.683 2°55.768 18.8 4.3 5 12.7
2004-07-14 06:34:35 51°13.691 2°55.768 9.9 4.6 359 13.6
2004-07-14 06:34:39 51°13.696 2°55.767 0.7 5 348 14.8
2004-07-14 06:34:45 51°13.705 2°55.763 351.3 5.4 342 14.1
2004-07-14 06:34:49 51°13.711 2°55.758 342.2 5.8 335 13.4
2004-07-14 06:34:55 51°13.719 2°55.75 336.1 5.8 331 11.8
2004-07-14 06:35:00 51°13.726 2°55.743 333 5.7 329 10.7
2004-07-14 06:35:05 51°13.733 2°55.737 331.2 5.8 328 10.1
2004-07-14 06:35:09 51°13.738 2°55.731 329.8 5.9 326 9.2
2004-07-14 06:35:13 51°13.744 2°55.724 329.1 6.1 326 8.9
2004-07-14 06:35:20 51°13.754 2°55.713 328.9 6.4 325 8.7
2004-07-14 06:35:25 51°13.761 2°55.704 328.7 6.5 325 8.8
2004-07-14 06:35:29 51°13.767 2°55.697 328.1 6.7 324 9.3
2004-07-14 06:35:35 51°13.776 2°55.686 328 6.8 325 9.1
2004-07-14 06:35:39 51°13.783 2°55.679 328.4 7 325 9.3
2004-07-14 06:35:45 51°13.793 2°55.669 329.3 7.1 326 9.7
2004-07-14 06:35:50 51°13.801 2°55.66 330 7.2 327 10
2004-07-14 06:35:55 51°13.81 2°55.651 330.9 7.3 327 9.7
2004-07-14 06:36:00 51°13.818 2°55.642 332.2 7.4 328 9.8
2004-07-14 06:36:05 51°13.827 2°55.634 333.1 7.4 329 10
2004-07-14 06:36:09 51°13.834 2°55.627 334.4 7.5 330 9.8
2004-07-14 06:36:15 51°13.845 2°55.617 334.9 7.5 330 9.4
2004-07-14 06:36:19 51°13.853 2°55.611 335.3 7.6 331 9.8
2004-07-14 06:36:25 51°13.864 2°55.601 336.1 7.6 332 10.1
2004-07-14 06:36:29 51°13.872 2°55.596 337.2 7.7 334 10.1
2004-07-14 06:36:33 51°13.879 2°55.59 338.6 7.7 334 9.6
2004-07-14 06:36:40 51°13.893 2°55.58 339.4 7.8 335 10
2004-07-14 06:36:45 51°13.903 2°55.573 339.9 7.8 335 9.6
2004-07-14 06:36:49 51°13.911 2°55.568 340.4 7.8 336 9.2
2004-07-14 06:36:55 51°13.924 2°55.56 341 7.8 336 9.5
2004-07-14 06:37:00 51°13.934 2°55.553 341.5 7.8 336 10
2004-07-14 06:37:04 51°13.941 2°55.547 341.4 7.9 336 10.2
2004-07-14 06:37:10 51°13.953 2°55.538 341.3 7.9 336 11
2004-07-14 06:37:15 51°13.963 2°55.531 341.4 7.9 336 11.2
2004-07-14 06:37:20 51°13.973 2°55.524 341.8 7.9 337 11.5
2004-07-14 06:37:25 51°13.983 2°55.517 341.8 8 337 11.8
2004-07-14 06:37:29 51°13.991 2°55.511 341.2 8 336 12
2004-07-14 06:37:35 51°14.004 2°55.502 341.1 8.1 336 11.3
2004-07-14 06:37:39 51°14.012 2°55.496 341.1 8.1 336 10.8
2004-07-14 06:37:44 51°14.022 2°55.489 341.1 8.2 336 10.4
2004-07-14 06:37:49 51°14.033 2°55.481 341.3 8.4 336 10.3
2004-07-14 06:37:55 51°14.046 2°55.472 341.3 8.4 336 10.7
2004-07-14 06:38:00 51°14.057 2°55.465 341.7 8.8 336 10.7
2004-07-14 06:38:05 51°14.068 2°55.457 341.8 9 336 10.8
2004-07-14 06:38:09 51°14.078 2°55.45 341.9 9.3 337 10.6
2004-07-14 06:38:15 51°14.093 2°55.441 341.4 9.6 336 10.7
2004-07-14 06:38:19 51°14.103 2°55.434 341.2 9.8 336 11
2004-07-14 06:38:24 51°14.115 2°55.424 341.4 10 336 11
2004-07-14 06:38:30 51°14.131 2°55.413 341.2 10.1 335 11.7
2004-07-14 06:38:35 51°14.143 2°55.403 340.2 10.2 334 11.4
2004-07-14 06:38:40 51°14.156 2°55.392 338.5 10.4 331 11.7
2004-07-14 06:38:45 51°14.169 2°55.38 336.2 10.4 330 11.4
2004-07-14 06:38:49 51°14.178 2°55.37 334.9 10.5 329 11.4
2004-07-14 06:38:55 51°14.193 2°55.354 333.4 10.6 328 11.5
2004-07-14 06:39:00 51°14.205 2°55.341 331 10.7 324 11.5
2004-07-14 06:39:05 51°14.217 2°55.326 328.4 10.8 321 11.5
2004-07-14 06:39:10 51°14.228 2°55.31 326.7 10.9 320 11.2
2004-07-14 06:39:15 51°14.239 2°55.294 324.8 11 318 11
2004-07-14 06:39:20 51°14.25 2°55.276 323.2 11.1 316 11
2004-07-14 06:39:24 51°14.259 2°55.262 320.2 11.2 314 11
2004-07-14 06:39:29 51°14.27 2°55.244 319 11.3 313 11
2004-07-14 06:39:35 51°14.283 2°55.222 318.3 11.5 313 11
2004-07-14 06:39:40 51°14.294 2°55.203 317.5 11.6 312 10.9
2004-07-14 06:39:45 51°14.304 2°55.183 316.4 11.7 311 10.9
2004-07-14 06:39:49 51°14.313 2°55.167 315.9 11.8 311 10.9
2004-07-14 06:39:55 51°14.325 2°55.143 315.6 12 310 10.8
2004-07-14 06:40:00 51°14.336 2°55.122 315.7 12.2 311 10.8
2004-07-14 06:40:05 51°14.348 2°55.102 316.2 12.3 311 10.6
2004-07-14 06:40:09 51°14.357 2°55.086 317 12.4 312 10.4
2004-07-14 06:40:15 51°14.37 2°55.06 316.5 12.5 311 10.9
2004-07-14 06:40:20 51°14.382 2°55.039 316.4 12.7 310 10.8
2004-07-14 06:40:25 51°14.393 2°55.017 316.3 12.8 310 10.7
2004-07-14 06:40:29 51°14.402 2°54.999 315.6 13 309 10.8
2004-07-14 06:40:35 51°14.416 2°54.972 315.3 13.1 309 10.8
2004-07-14 06:40:39 51°14.425 2°54.954 315.1 13.2 309 10.8
2004-07-14 06:40:45 51°14.439 2°54.926 315.1 13.3 308 10.6
2004-07-14 06:40:48 51°14.446 2°54.912 314.8 13.3 308 10.3
2004-07-14 06:40:55 51°14.461 2°54.88 314.4 13.4 307 10.6
2004-07-14 06:41:00 51°14.472 2°54.855 313.5 13.4 306 10.5
2004-07-14 06:41:04 51°14.481 2°54.836 312.5 13.4 306 10.2
2004-07-14 06:41:09 51°14.492 2°54.813 312.3 13.5 305 10.2
2004-07-14 06:41:13 51°14.501 2°54.794 312.2 13.5 306 10.2
2004-07-14 06:41:20 51°14.516 2°54.76 312.6 13.5 306 10.2
2004-07-14 06:41:24 51°14.525 2°54.741 313.1 13.5 306 10.2
2004-07-14 06:41:29 51°14.536 2°54.717 313.4 13.5 306 10.2
2004-07-14 06:41:33 51°14.545 2°54.697 312.7 13.5 305 10.1
2004-07-14 06:41:39 51°14.558 2°54.668 311.8 13.6 304 10.1
2004-07-14 06:41:44 51°14.568 2°54.643 311.2 13.6 304 9.9
2004-07-14 06:41:49 51°14.579 2°54.618 310.6 13.6 304 9.9
2004-07-14 06:41:53 51°14.587 2°54.598 310.1 13.6 303 9.9
2004-07-14 06:41:59 51°14.599 2°54.567 309.9 13.6 303 9.9
2004-07-14 06:42:04 51°14.609 2°54.542 309.9 13.6 303 9.8
2004-07-14 06:42:09 51°14.619 2°54.517 309.9 13.6 303 9.7
2004-07-14 06:42:14 51°14.63 2°54.492 310.1 13.7 304 9.9
2004-07-14 06:42:19 51°14.64 2°54.467 310.5 13.6 304 9.9
2004-07-14 06:42:24 51°14.651 2°54.442 310.8 13.5 304 9.8
2004-07-14 06:42:29 51°14.661 2°54.417 310.7 13.6 304 10
2004-07-14 06:42:34 51°14.672 2°54.392 310.4 13.6 303 10.1
2004-07-14 06:42:39 51°14.682 2°54.366 309.6 13.6 302 10.1
2004-07-14 06:42:44 51°14.692 2°54.341 309.1 13.6 302 10
2004-07-14 06:42:49 51°14.702 2°54.315 308.5 13.6 302 10
2004-07-14 06:42:53 51°14.71 2°54.295 308.4 13.6 302 10.1
2004-07-14 06:42:59 51°14.722 2°54.264 308.3 13.6 301 10
2004-07-14 06:43:04 51°14.732 2°54.239 308.4 13.6 302 9.9
2004-07-14 06:43:10 51°14.743 2°54.208 307.7 13.6 301 9.8
2004-07-14 06:43:14 51°14.75 2°54.186 306.3 13.6 299 9.9
2004-07-14 06:43:17 51°14.755 2°54.171 305.3 13.5 298 9.8
2004-07-14 06:43:24 51°14.767 2°54.133 304.2 13.5 297 9.8
2004-07-14 06:43:29 51°14.776 2°54.107 304 13.5 297 9.9
2004-07-14 06:43:35 51°14.786 2°54.075 303.3 13.5 296 9.7
2004-07-14 06:43:40 51°14.794 2°54.048 303.1 13.5 296 9.6
2004-07-14 06:43:44 51°14.8 2°54.027 302.8 13.4 296 9.5
2004-07-14 06:43:49 51°14.808 2°54 302.9 13.4 296 9.7
2004-07-14 06:43:53 51°14.815 2°53.979 303.2 13.5 297 9.4
2004-07-14 06:44:00 51°14.827 2°53.942 303.3 13.4 297 9.3
2004-07-14 06:44:04 51°14.834 2°53.92 303.4 13.4 297 9.3
2004-07-14 06:44:09 51°14.842 2°53.894 303.2 13.5 296 9.4
2004-07-14 06:44:16 51°14.853 2°53.856 303.3 13.4 297 9.4
2004-07-14 06:44:20 51°14.86 2°53.835 303.5 13.4 296 9.2
2004-07-14 06:44:23 51°14.865 2°53.819 303.3 13.4 296 9.3
2004-07-14 06:44:29 51°14.875 2°53.787 302.7 13.4 296 9.5
2004-07-14 06:44:35 51°14.885 2°53.755 303.3 13.5 296 9.5
2004-07-14 06:44:39 51°14.891 2°53.734 303.6 13.5 297 9.4
2004-07-14 06:44:44 51°14.9 2°53.707 303.7 13.5 296 9.6
2004-07-14 06:44:50 51°14.91 2°53.675 303.8 13.5 296 9.5
2004-07-14 06:44:56 51°14.919 2°53.642 303.7 13.5 296 9.5
2004-07-14 06:45:01 51°14.927 2°53.615 303.6 13.5 296 9.7
2004-07-14 06:45:04 51°14.932 2°53.599 303.4 13.5 296 9.6
2004-07-14 06:45:10 51°14.943 2°53.568 303.3 13.5 296 10
2004-07-14 06:45:14 51°14.949 2°53.546 303.6 13.5 297 9.7
2004-07-14 06:45:20 51°14.96 2°53.514 304.1 13.6 297 9.8
2004-07-14 06:45:24 51°14.967 2°53.493 304.2 13.6 297 9.9
2004-07-14 06:45:30 51°14.977 2°53.461 304.3 13.6 296 9.7
2004-07-14 06:45:36 51°14.987 2°53.429 304.1 13.5 296 9.9
2004-07-14 06:45:40 51°14.993 2°53.406 303.7 13.6 296 10
2004-07-14 06:45:45 51°15.001 2°53.379 302.8 13.6 295 9.9
2004-07-14 06:45:50 51°15.009 2°53.352 302 13.5 294 9.8
2004-07-14 06:45:54 51°15.015 2°53.33 301.9 13.6 294 9.8
2004-07-14 06:46:01 51°15.025 2°53.291 301.5 13.6 293 9.8
2004-07-14 06:46:05 51°15.032 2°53.27 301.2 13.5 294 9.7
2004-07-14 06:46:08 51°15.036 2°53.254 301.7 13.5 295 9.8
2004-07-14 06:46:16 51°15.049 2°53.21 301.8 13.6 295 10
2004-07-14 06:46:21 51°15.056 2°53.182 301.5 13.6 294 9.8
2004-07-14 06:46:24 51°15.061 2°53.166 301.3 13.6 294 9.7
2004-07-14 06:46:29 51°15.069 2°53.138 301.4 13.6 294 9.8
2004-07-14 06:46:34 51°15.076 2°53.111 301.1 13.6 294 9.8
2004-07-14 06:46:40 51°15.085 2°53.078 301 13.6 294 10
2004-07-14 06:46:45 51°15.092 2°53.05 300.9 13.6 293 10.1
2004-07-14 06:46:50 51°15.1 2°53.023 300.4 13.6 293 10.2
2004-07-14 06:46:56 51°15.108 2°52.99 300.2 13.6 292 10.2
2004-07-14 06:47:00 51°15.114 2°52.968 299.8 13.6 292 10.2
2004-07-14 06:47:04 51°15.12 2°52.945 299.7 13.5 292 10.2
2004-07-14 06:47:09 51°15.127 2°52.917 299.2 13.5 292 10.3
2004-07-14 06:47:14 51°15.134 2°52.89 299.8 13.5 293 10.5
2004-07-14 06:47:21 51°15.144 2°52.851 300.2 13.7 293 10.3
2004-07-14 06:47:24 51°15.149 2°52.834 300.2 13.6 292 10.6
2004-07-14 06:47:29 51°15.156 2°52.807 300 13.6 292 10.6
2004-07-14 06:47:34 51°15.163 2°52.779 299.9 13.6 292 10.6
2004-07-14 06:47:40 51°15.171 2°52.745 298.7 13.7 290 10.7
2004-07-14 06:47:45 51°15.177 2°52.716 297.9 13.7 290 10.8
2004-07-14 06:47:50 51°15.183 2°52.687 297.2 13.6 289 10.8
2004-07-14 06:47:54 51°15.188 2°52.665 296.6 13.7 289 10.9
2004-07-14 06:48:00 51°15.196 2°52.63 296.2 13.6 289 10.9
2004-07-14 06:48:05 51°15.202 2°52.601 296.3 13.7 289 11
2004-07-14 06:48:09 51°15.207 2°52.578 296.4 13.7 289 11
2004-07-14 06:48:14 51°15.213 2°52.55 296.8 13.7 289 11.1
2004-07-14 06:48:20 51°15.22 2°52.515 296.8 13.7 288 11.1
2004-07-14 06:48:24 51°15.225 2°52.493 296.3 13.7 288 11.2
2004-07-14 06:48:29 51°15.23 2°52.463 295.7 13.7 286 11.1
2004-07-14 06:48:36 51°15.238 2°52.422 294.6 13.6 286 11.2
2004-07-14 06:48:37 51°15.239 2°52.417 293.8 13.7 284 11.3
2004-07-14 06:48:44 51°15.245 2°52.376 292.5 13.7 283 11.2
2004-07-14 06:48:49 51°15.249 2°52.346 291.1 13.7 283 11.3
2004-07-14 06:48:54 51°15.253 2°52.316 290.3 13.8 282 11.5
2004-07-14 06:49:00 51°15.257 2°52.28 289.4 13.8 280 11.5
2004-07-14 06:49:04 51°15.259 2°52.256 288 13.7 279 11.6
2004-07-14 06:49:09 51°15.262 2°52.226 287.1 13.7 279 11.5
2004-07-14 06:49:13 51°15.264 2°52.202 285.2 13.8 277 11.7
2004-07-14 06:49:20 51°15.267 2°52.16 284.2 13.8 276 11.8
2004-07-14 06:49:23 51°15.268 2°52.141 283 13.8 274 11.7
2004-07-14 06:49:28 51°15.269 2°52.111 281.2 13.8 272 11.8
2004-07-14 06:49:36 51°15.269 2°52.062 279.5 13.8 271 11.9
2004-07-14 06:49:40 51°15.268 2°52.038 277.6 13.8 268 11.9
2004-07-14 06:49:44 51°15.267 2°52.013 275.3 13.8 267 11.8
2004-07-14 06:49:49 51°15.266 2°51.983 274.3 13.9 267 11.9
2004-07-14 06:49:54 51°15.265 2°51.952 272.9 13.8 265 11.9
2004-07-14 06:50:00 51°15.262 2°51.915 271.7 13.9 265 12
2004-07-14 06:50:03 51°15.261 2°51.897 271 13.9 265 12
2004-07-14 06:50:09 51°15.259 2°51.861 270.6 13.8 264 11.9
2004-07-14 06:50:13 51°15.257 2°51.837 270 13.9 263 11.9
2004-07-14 06:50:20 51°15.254 2°51.794 269.7 13.9 263 12
2004-07-14 06:50:24 51°15.251 2°51.77 269.1 13.9 262 12
2004-07-14 06:50:28 51°15.249 2°51.746 268.5 13.9 261 12
2004-07-14 06:50:36 51°15.245 2°51.697 268.1 13.9 261 12
2004-07-14 06:50:39 51°15.243 2°51.679 268.5 13.9 260 12
2004-07-14 06:50:43 51°15.241 2°51.654 268.6 13.9 260 12
2004-07-14 06:50:50 51°15.237 2°51.612 268.8 13.9 261 12
2004-07-14 06:50:54 51°15.235 2°51.587 268.6 13.9 262 11.9
2004-07-14 06:51:00 51°15.232 2°51.551 268.4 13.9 262 12.1
2004-07-14 06:51:03 51°15.23 2°51.533 268.4 13.9 263 12.1
2004-07-14 06:51:09 51°15.227 2°51.496 268.7 13.9 262 12.2
2004-07-14 06:51:15 51°15.224 2°51.459 268.9 13.9 263 12.3
2004-07-14 06:51:20 51°15.222 2°51.429 269.1 13.9 263 12.4
2004-07-14 06:51:24 51°15.22 2°51.405 269.1 13.9 262 12.4
2004-07-14 06:51:29 51°15.217 2°51.374 268.9 13.9 262 12.2
2004-07-14 06:51:35 51°15.214 2°51.338 269.1 13.9 262 12.3
2004-07-14 06:51:39 51°15.212 2°51.313 269.2 13.9 261 12.2
2004-07-14 06:51:48 51°15.207 2°51.259 267.8 13.9 260 12.5
2004-07-14 06:51:55 51°15.203 2°51.216 267.8 13.9 261 12.4
2004-07-14 06:51:59 51°15.2 2°51.192 267.3 14 261 12.4
2004-07-14 06:52:04 51°15.197 2°51.162 267.2 13.9 261 12.5
2004-07-14 06:52:09 51°15.194 2°51.131 267.1 13.9 260 12.4
2004-07-14 06:52:14 51°15.191 2°51.101 266.9 13.9 260 12.5
2004-07-14 06:52:19 51°15.187 2°51.07 267 13.9 261 12.4
2004-07-14 06:52:24 51°15.185 2°51.04 267.3 13.9 262 12.5
2004-07-14 06:52:29 51°15.181 2°51.01 267 13.9 261 12.7
2004-07-14 06:52:35 51°15.177 2°50.974 267 13.9 260 12.6
2004-07-14 06:52:39 51°15.175 2°50.949 267.6 13.9 261 12.5
2004-07-14 06:52:43 51°15.173 2°50.925 267.8 13.8 262 12.5
2004-07-14 06:52:49 51°15.169 2°50.889 267.2 13.9 261 12.6
2004-07-14 06:52:54 51°15.167 2°50.859 267.6 13.9 263 12.5
2004-07-14 06:52:59 51°15.163 2°50.828 267.4 13.8 262 12.6
2004-07-14 06:53:04 51°15.16 2°50.798 267.5 13.8 261 12.6
2004-07-14 06:53:10 51°15.156 2°50.762 267.3 13.9 260 12.6
2004-07-14 06:53:14 51°15.154 2°50.738 267 13.8 261 12.6
2004-07-14 06:53:20 51°15.15 2°50.702 267.1 13.9 261 12.6
2004-07-14 06:53:25 51°15.147 2°50.671 267.1 13.8 261 12.7
2004-07-14 06:53:30 51°15.144 2°50.641 267.7 13.8 260 12.7
2004-07-14 06:53:36 51°15.139 2°50.605 266.6 13.8 260 12.7
2004-07-14 06:53:40 51°15.136 2°50.581 265.8 13.8 259 12.7
2004-07-14 06:53:44 51°15.133 2°50.557 265 13.8 257 12.7
2004-07-14 06:53:50 51°15.128 2°50.522 263.4 13.8 256 12.8
2004-07-14 06:53:54 51°15.124 2°50.498 262.7 13.9 256 12.8
2004-07-14 06:54:01 51°15.117 2°50.457 262 13.9 256 12.8
2004-07-14 06:54:06 51°15.112 2°50.427 261.5 13.9 255 12.8
2004-07-14 06:54:10 51°15.108 2°50.403 261.2 13.9 255 12.8
2004-07-14 06:54:14 51°15.104 2°50.379 261.2 13.9 256 12.8
2004-07-14 06:54:19 51°15.099 2°50.35 261.2 13.9 256 12.7
2004-07-14 06:54:22 51°15.097 2°50.332 261.4 13.9 255 12.7
2004-07-14 06:54:33 51°15.086 2°50.267 261.2 13.9 255 12.8
2004-07-14 06:54:40 51°15.079 2°50.225 261.3 13.9 255 12.8
2004-07-14 06:54:44 51°15.075 2°50.201 261.6 13.9 256 12.7
2004-07-14 06:54:48 51°15.072 2°50.177 261.7 13.9 257 12.7
2004-07-14 06:54:53 51°15.066 2°50.148 261.8 13.9 255 12.7
2004-07-14 06:54:58 51°15.062 2°50.118 261.4 14 256 12.8
2004-07-14 06:55:04 51°15.056 2°50.082 261.6 13.9 256 12.8
2004-07-14 06:55:09 51°15.052 2°50.052 262 13.9 257 12.8
2004-07-14 06:55:13 51°15.048 2°50.028 262.6 13.9 258 12.8
2004-07-14 06:55:17 51°15.045 2°50.004 264.1 13.9 259 12.8
2004-07-14 06:55:24 51°15.04 2°49.961 264.9 13.9 259 12.8
2004-07-14 06:55:29 51°15.037 2°49.931 265.8 13.9 261 12.8
2004-07-14 06:55:34 51°15.033 2°49.901 266 14 259 12.8
2004-07-14 06:55:40 51°15.03 2°49.865 266.2 13.9 260 12.8
2004-07-14 06:55:44 51°15.026 2°49.84 266.6 14 258 12.8
2004-07-14 06:55:50 51°15.023 2°49.804 266 13.9 262 12.8
2004-07-14 06:55:53 51°15.02 2°49.786 266.3 13.9 258 12.7
2004-07-14 06:56:00 51°15.016 2°49.743 265.8 13.9 260 12.8
2004-07-14 06:56:04 51°15.013 2°49.719 265.6 13.9 260 12.9
2004-07-14 06:56:09 51°15.01 2°49.689 266.2 13.9 260 12.9
2004-07-14 06:56:14 51°15.006 2°49.658 265.9 14 259 12.8
2004-07-14 06:56:20 51°15.002 2°49.622 266.4 13.9 261 12.9
2004-07-14 06:56:24 51°15 2°49.598 266.2 14 260 12.7
2004-07-14 06:56:29 51°14.996 2°49.568 266 13.9 261 12.8
2004-07-14 06:56:33 51°14.993 2°49.543 266.4 13.9 260 12.8
2004-07-14 06:56:40 51°14.989 2°49.501 266 13.9 261 12.8
2004-07-14 06:56:44 51°14.986 2°49.477 266.5 13.8 258 12.8
2004-07-14 06:56:50 51°14.982 2°49.441 265.8 13.9 261 12.7
2004-07-14 06:56:53 51°14.98 2°49.423 266.4 13.8 260 12.8
2004-07-14 06:57:00 51°14.976 2°49.38 266.4 13.8 260 12.8
2004-07-14 06:57:04 51°14.973 2°49.356 265.9 13.9 261 12.7
2004-07-14 06:57:09 51°14.97 2°49.326 266.5 13.8 260 12.9
2004-07-14 06:57:14 51°14.966 2°49.296 266.1 13.8 259 12.8
2004-07-14 06:57:20 51°14.963 2°49.26 265.7 13.8 261 12.8
2004-07-14 06:57:24 51°14.96 2°49.236 266.3 13.8 260 12.8
2004-07-14 06:57:28 51°14.958 2°49.212 266.3 13.8 261 12.8
2004-07-14 06:57:36 51°14.952 2°49.163 266.3 13.9 261 12.9
2004-07-14 06:57:42 51°14.949 2°49.128 266.4 13.8 260 12.8
2004-07-14 06:57:48 51°14.944 2°49.092 265.7 13.7 259 12.8
2004-07-14 06:57:49 51°14.944 2°49.086 265.6 13.8 260 12.8
2004-07-14 06:57:56 51°14.94 2°49.043 266.3 13.7 261 12.8
2004-07-14 06:58:01 51°14.936 2°49.013 266.2 13.7 260 12.8
2004-07-14 06:58:08 51°14.931 2°48.971 265.9 13.8 260 12.8
2004-07-14 06:58:12 51°14.929 2°48.947 266.2 13.8 261 12.8
2004-07-14 06:58:17 51°14.926 2°48.918 266.8 13.7 261 12.9
2004-07-14 06:58:22 51°14.922 2°48.888 266.3 13.8 260 12.7
2004-07-14 06:58:28 51°14.918 2°48.852 266 13.9 261 12.8
2004-07-14 06:58:32 51°14.916 2°48.828 266.5 13.6 260 12.8
2004-07-14 06:58:38 51°14.912 2°48.792 266.2 13.6 260 12.7
2004-07-14 06:58:42 51°14.909 2°48.768 265.7 13.8 260 12.7
2004-07-14 06:58:48 51°14.905 2°48.733 266.3 13.8 261 12.7
2004-07-14 06:58:52 51°14.903 2°48.709 266.9 13.6 260 12.7
2004-07-14 06:58:57 51°14.9 2°48.679 266.3 13.7 260 12.7
2004-07-14 06:59:02 51°14.896 2°48.649 265.9 13.8 260 12.6
2004-07-14 06:59:06 51°14.894 2°48.625 266.5 13.7 262 12.7
2004-07-14 06:59:12 51°14.89 2°48.59 266.6 13.6 260 12.6
2004-07-14 06:59:17 51°14.887 2°48.56 266 13.8 260 12.5
2004-07-14 06:59:22 51°14.883 2°48.53 265.8 13.8 260 12.5
2004-07-14 06:59:26 51°14.881 2°48.506 266.5 13.7 260 12.6
2004-07-14 06:59:30 51°14.879 2°48.482 266.9 13.7 259 12.4
2004-07-14 06:59:38 51°14.874 2°48.435 265.9 13.7 261 12.5
2004-07-14 06:59:42 51°14.87 2°48.411 266.5 13.7 261 12.4
2004-07-14 06:59:48 51°14.867 2°48.375 265.8 13.8 259 12.5
2004-07-14 06:59:52 51°14.864 2°48.351 266.5 13.6 259 12.5
2004-07-14 06:59:57 51°14.861 2°48.321 266.3 13.7 261 12.5
2004-07-14 07:00:02 51°14.858 2°48.292 266.3 13.7 260 12.5
2004-07-14 07:00:08 51°14.854 2°48.256 266 13.7 259 12.4
2004-07-14 07:00:13 51°14.851 2°48.226 266 13.7 260 12.5
2004-07-14 07:00:17 51°14.849 2°48.202 266.6 13.6 262 12.5
2004-07-14 07:00:22 51°14.845 2°48.173 266.5 13.7 260 12.6
2004-07-14 07:00:28 51°14.842 2°48.137 266.7 13.6 262 12.5
2004-07-14 07:00:33 51°14.839 2°48.107 266.5 13.7 261 12.6
2004-07-14 07:00:36 51°14.837 2°48.089 266.6 13.6 260 12.6
2004-07-14 07:00:41 51°14.834 2°48.059 266.3 13.6 260 12.7
2004-07-14 07:00:46 51°14.83 2°48.03 266 13.6 261 12.8
2004-07-14 07:00:52 51°14.826 2°47.994 265.7 13.7 261 12.9
2004-07-14 07:00:57 51°14.823 2°47.964 266.3 13.6 260 13.1
2004-07-14 07:01:02 51°14.82 2°47.935 266.3 13.7 260 13.6
2004-07-14 07:01:08 51°14.816 2°47.899 266 13.6 261 14
2004-07-14 07:01:13 51°14.813 2°47.869 266.4 13.7 260 14
2004-07-14 07:01:17 51°14.811 2°47.845 266.3 13.7 262 13.5
2004-07-14 07:01:22 51°14.808 2°47.815 266.6 13.6 260 13
2004-07-14 07:01:28 51°14.803 2°47.78 266.5 13.6 261 12.9
2004-07-14 07:01:33 51°14.801 2°47.75 265.8 13.6 261 12.9
2004-07-14 07:01:36 51°14.798 2°47.733 266.2 13.6 259 12.8
2004-07-14 07:01:42 51°14.795 2°47.697 266.1 13.6 261 12.8
2004-07-14 07:01:46 51°14.792 2°47.673 266.3 13.6 260 12.9
2004-07-14 07:01:52 51°14.789 2°47.638 266.3 13.6 261 12.8
2004-07-14 07:01:57 51°14.785 2°47.608 266.4 13.6 260 12.8
2004-07-14 07:02:01 51°14.784 2°47.585 266.4 13.6 262 12.9
2004-07-14 07:02:08 51°14.779 2°47.543 266.7 13.6 260 13
2004-07-14 07:02:13 51°14.776 2°47.514 266.5 13.6 261 13.1
2004-07-14 07:02:16 51°14.774 2°47.496 266.5 13.6 260 13.1
2004-07-14 07:02:22 51°14.771 2°47.46 266.3 13.7 262 13.1
2004-07-14 07:02:28 51°14.767 2°47.424 266.4 13.6 261 13.1
2004-07-14 07:02:32 51°14.765 2°47.4 266.5 13.6 261 13.2
2004-07-14 07:02:36 51°14.762 2°47.377 266.7 13.5 260 13
2004-07-14 07:02:42 51°14.759 2°47.341 265.9 13.6 260 13.1
2004-07-14 07:02:48 51°14.755 2°47.306 266.3 13.6 261 13.2
2004-07-14 07:02:49 51°14.754 2°47.3 266.4 13.6 260 13.2
2004-07-14 07:02:56 51°14.75 2°47.259 266.1 13.6 260 13.2
2004-07-14 07:03:02 51°14.746 2°47.224 266.3 13.5 261 13.2
2004-07-14 07:03:06 51°14.744 2°47.2 265.7 13.5 260 13.1
2004-07-14 07:03:12 51°14.74 2°47.165 265.7 13.6 261 13.2
2004-07-14 07:03:16 51°14.737 2°47.141 266.2 13.6 260 13.2
2004-07-14 07:03:22 51°14.733 2°47.106 265.8 13.6 260 13.1
2004-07-14 07:03:28 51°14.729 2°47.07 266.2 13.5 261 13.1
2004-07-14 07:03:30 51°14.728 2°47.058 265.7 13.6 262 13.2
2004-07-14 07:03:37 51°14.724 2°47.017 266.2 13.6 261 13.2
2004-07-14 07:03:42 51°14.721 2°46.987 266.1 13.6 260 13.2
2004-07-14 07:03:48 51°14.718 2°46.951 266.5 13.6 261 13.2
2004-07-14 07:03:53 51°14.715 2°46.922 266.5 13.6 260 13.1
2004-07-14 07:03:56 51°14.713 2°46.904 265.8 13.6 260 13.1
2004-07-14 07:04:02 51°14.709 2°46.868 266.2 13.6 261 13.1
2004-07-14 07:04:06 51°14.706 2°46.844 266.2 13.5 260 13
2004-07-14 07:04:12 51°14.703 2°46.808 266.2 13.6 261 12.9
2004-07-14 07:04:16 51°14.701 2°46.785 266.5 13.5 260 12.9
2004-07-14 07:04:22 51°14.697 2°46.749 266 13.5 261 12.7
2004-07-14 07:04:26 51°14.695 2°46.725 266.4 13.5 261 12.5
2004-07-14 07:04:33 51°14.69 2°46.683 266.5 13.5 260 12.7
2004-07-14 07:04:37 51°14.688 2°46.66 265.9 13.5 260 12.6
2004-07-14 07:04:42 51°14.685 2°46.63 266.1 13.5 261 12.4
2004-07-14 07:04:48 51°14.681 2°46.595 266.2 13.4 262 12
2004-07-14 07:04:52 51°14.678 2°46.572 266.1 13.5 259 11.9
2004-07-14 07:04:56 51°14.676 2°46.548 265.6 13.5 261 12.2
2004-07-14 07:05:02 51°14.673 2°46.513 266.2 13.4 261 12
2004-07-14 07:05:08 51°14.669 2°46.477 265.6 13.5 259 11.8
2004-07-14 07:05:12 51°14.666 2°46.454 266.4 13.3 261 11.8
2004-07-14 07:05:17 51°14.663 2°46.425 266.2 13.4 259 11.4
2004-07-14 07:05:22 51°14.659 2°46.395 266.2 13.4 261 11.2
2004-07-14 07:05:27 51°14.656 2°46.366 266.7 13.3 260 11.3
2004-07-14 07:05:33 51°14.653 2°46.331 266.3 13.3 261 11.1
2004-07-14 07:05:37 51°14.65 2°46.308 266.3 13.3 260 11
2004-07-14 07:05:41 51°14.648 2°46.285 266.3 13.4 261 10.8
2004-07-14 07:05:48 51°14.643 2°46.245 266.6 13.3 261 10.5
2004-07-14 07:05:52 51°14.641 2°46.222 266 13.3 260 10.6
2004-07-14 07:05:57 51°14.638 2°46.193 266 13.3 262 10.4
2004-07-14 07:06:02 51°14.635 2°46.164 266.8 13.3 259 10.1
2004-07-14 07:06:08 51°14.631 2°46.13 266 13.4 260 10
2004-07-14 07:06:12 51°14.629 2°46.107 266.7 13.2 260 9.7
2004-07-14 07:06:17 51°14.626 2°46.078 266.3 13.2 260 9.8
2004-07-14 07:06:21 51°14.623 2°46.055 266.2 13.2 261 9.4
2004-07-14 07:06:28 51°14.619 2°46.015 266.8 13.2 259 9.4
2004-07-14 07:06:32 51°14.617 2°45.992 265.6 13.2 262 9.3
2004-07-14 07:06:36 51°14.614 2°45.969 266.7 13.2 260 9.2
2004-07-14 07:06:41 51°14.611 2°45.94 265.9 13.2 260 9
2004-07-14 07:06:46 51°14.608 2°45.911 266.1 13.3 261 8.9
2004-07-14 07:06:52 51°14.604 2°45.877 266.6 13.2 259 8.9
2004-07-14 07:06:56 51°14.602 2°45.854 266 13.3 262 8.8
2004-07-14 07:07:01 51°14.599 2°45.825 267 13.1 260 8.8
2004-07-14 07:07:08 51°14.595 2°45.785 266.5 13.2 260 8.7
2004-07-14 07:07:12 51°14.593 2°45.762 266.6 13.1 261 8.6
2004-07-14 07:07:16 51°14.59 2°45.739 266.8 13.2 260 8.7
2004-07-14 07:07:21 51°14.587 2°45.71 266.3 13.2 261 8.7
2004-07-14 07:07:28 51°14.583 2°45.67 266.6 13.2 260 8.6
2004-07-14 07:07:32 51°14.58 2°45.648 266 13.2 261 8.7
2004-07-14 07:07:36 51°14.578 2°45.625 266.3 13.2 260 8.7
2004-07-14 07:07:38 51°14.576 2°45.613 266.3 13.2 261 8.7
2004-07-14 07:07:45 51°14.572 2°45.572 265.7 13.3 260 8.5
2004-07-14 07:07:52 51°14.568 2°45.531 266.4 13.3 260 8.7
2004-07-14 07:07:56 51°14.566 2°45.508 266.8 13.2 262 8.8
2004-07-14 07:08:01 51°14.563 2°45.479 267 13.3 261 9
2004-07-14 07:08:08 51°14.559 2°45.438 266.6 13.4 260 9
2004-07-14 07:08:12 51°14.557 2°45.415 267.1 13.3 261 9.2
2004-07-14 07:08:17 51°14.554 2°45.386 267 13.4 262 9.3
2004-07-14 07:08:21 51°14.552 2°45.363 267 13.4 260 9.4
2004-07-14 07:08:26 51°14.548 2°45.333 266.6 13.4 260 9.5
2004-07-14 07:08:32 51°14.545 2°45.297 266 13.5 262 9.7
2004-07-14 07:08:36 51°14.543 2°45.274 266.8 13.4 260 9.8
2004-07-14 07:08:41 51°14.54 2°45.244 266.6 13.5 261 10
2004-07-14 07:08:48 51°14.536 2°45.203 266.3 13.5 260 10.2
2004-07-14 07:08:52 51°14.533 2°45.18 266.3 13.5 259 10.4
2004-07-14 07:08:56 51°14.531 2°45.156 266 13.5 261 10.5
2004-07-14 07:09:01 51°14.528 2°45.126 266.6 13.4 261 10.7
2004-07-14 07:09:06 51°14.525 2°45.097 265.9 13.5 259 10.9
2004-07-14 07:09:12 51°14.521 2°45.061 266.5 13.5 260 11
2004-07-14 07:09:16 51°14.519 2°45.038 266.8 13.5 261 11.2
2004-07-14 07:09:21 51°14.516 2°45.008 266.9 13.5 262 11.2
2004-07-14 07:09:28 51°14.512 2°44.967 266.7 13.5 260 11.3
2004-07-14 07:09:29 51°14.511 2°44.961 266.3 13.5 260 11.5
2004-07-14 07:09:36 51°14.507 2°44.92 266.1 13.5 260 11.6
2004-07-14 07:09:41 51°14.503 2°44.89 265.8 13.6 260 11.8
2004-07-14 07:09:46 51°14.5 2°44.861 266.2 13.5 261 11.9
2004-07-14 07:09:52 51°14.496 2°44.826 266.2 13.5 260 12
2004-07-14 07:09:56 51°14.494 2°44.802 266.2 13.5 261 12.1
2004-07-14 07:10:01 51°14.491 2°44.773 266.3 13.5 260 12.1
2004-07-14 07:10:08 51°14.487 2°44.731 265.7 13.5 260 12.3
2004-07-14 07:10:12 51°14.484 2°44.708 265.9 13.5 261 12.5
2004-07-14 07:10:17 51°14.481 2°44.679 266.3 13.4 261 12.6
2004-07-14 07:10:21 51°14.478 2°44.655 266.2 13.6 259 12.7
2004-07-14 07:10:28 51°14.475 2°44.614 266.2 13.4 262 12.9
2004-07-14 07:10:32 51°14.472 2°44.59 266.5 13.5 259 13
2004-07-14 07:10:36 51°14.47 2°44.567 265.9 13.5 262 13.1
2004-07-14 07:10:41 51°14.467 2°44.538 267 13.4 261 13.4
2004-07-14 07:10:46 51°14.463 2°44.508 265.9 13.5 259 13.4
2004-07-14 07:10:52 51°14.46 2°44.473 266.6 13.5 261 13.6
2004-07-14 07:10:56 51°14.457 2°44.45 266 13.5 259 13.6
2004-07-14 07:11:01 51°14.454 2°44.42 266.3 13.5 261 13.9
2004-07-14 07:11:08 51°14.45 2°44.379 266.6 13.5 260 13.9
2004-07-14 07:11:12 51°14.448 2°44.355 265.9 13.6 261 14.1
2004-07-14 07:11:16 51°14.445 2°44.331 266.6 13.5 261 14.3
2004-07-14 07:11:21 51°14.442 2°44.302 266.6 13.5 260 14.3
2004-07-14 07:11:26 51°14.439 2°44.272 265.7 13.5 261 14.3
2004-07-14 07:11:32 51°14.435 2°44.237 266.2 13.4 260 14.5
2004-07-14 07:11:36 51°14.433 2°44.213 266.1 13.5 260 14.5
2004-07-14 07:11:41 51°14.43 2°44.184 265.5 13.6 260 14.6
2004-07-14 07:11:48 51°14.425 2°44.142 266.4 13.5 261 14.7
2004-07-14 07:11:52 51°14.423 2°44.119 266.1 13.5 260 14.7
2004-07-14 07:11:56 51°14.42 2°44.095 265.3 13.6 261 14.8
2004-07-14 07:12:01 51°14.417 2°44.066 266.1 13.5 260 14.9
2004-07-14 07:12:06 51°14.414 2°44.036 266.2 13.5 260 14.9
2004-07-14 07:12:12 51°14.411 2°44.001 266.5 13.5 260 15
2004-07-14 07:12:16 51°14.408 2°43.977 266 13.6 261 15.1
2004-07-14 07:12:21 51°14.405 2°43.947 266.3 13.5 261 15.3
2004-07-14 07:12:28 51°14.401 2°43.906 266.1 13.5 260 15.3
2004-07-14 07:12:29 51°14.4 2°43.9 266.3 13.5 262 15.4
2004-07-14 07:12:36 51°14.396 2°43.859 266.5 13.5 259 15.5
2004-07-14 07:12:41 51°14.393 2°43.829 265.6 13.6 261 15.7
2004-07-14 07:12:46 51°14.39 2°43.799 267 13.6 262 15.7
2004-07-14 07:12:52 51°14.387 2°43.764 267.8 13.5 263 15.8
2004-07-14 07:12:56 51°14.386 2°43.74 268.6 13.5 264 15.9
2004-07-14 07:13:01 51°14.384 2°43.71 269.1 13.5 263 16
2004-07-14 07:13:08 51°14.38 2°43.668 269.4 13.5 264 15.9
2004-07-14 07:13:12 51°14.379 2°43.644 269.2 13.6 263 16.2
2004-07-14 07:13:17 51°14.376 2°43.615 269.1 13.6 263 16.2
2004-07-14 07:13:21 51°14.375 2°43.591 269.2 13.5 263 16.3
2004-07-14 07:13:28 51°14.372 2°43.549 269.1 13.6 264 16.3
2004-07-14 07:13:32 51°14.37 2°43.526 269.2 13.5 263 16.5
2004-07-14 07:13:36 51°14.369 2°43.502 269.7 13.4 265 16.5
2004-07-14 07:13:41 51°14.366 2°43.472 269.5 13.6 262 16.6
2004-07-14 07:13:46 51°14.365 2°43.442 269.7 13.6 265 16.6
2004-07-14 07:13:52 51°14.363 2°43.406 270.7 13.5 265 16.8
2004-07-14 07:13:56 51°14.362 2°43.382 271 13.6 265 16.8
2004-07-14 07:14:01 51°14.36 2°43.352 271.2 13.7 265 16.6
2004-07-14 07:14:08 51°14.358 2°43.311 272 13.6 266 16.9
2004-07-14 07:14:12 51°14.357 2°43.287 271.9 13.6 265 16.8
2004-07-14 07:14:16 51°14.356 2°43.263 271.5 13.7 265 17
2004-07-14 07:14:21 51°14.355 2°43.233 271.8 13.6 266 16.9
2004-07-14 07:14:28 51°14.353 2°43.191 271.9 13.5 265 16.9
2004-07-14 07:14:32 51°14.351 2°43.167 271.3 13.7 265 16.8
2004-07-14 07:14:36 51°14.351 2°43.143 271.4 13.6 267 17
2004-07-14 07:14:41 51°14.349 2°43.113 272.1 13.5 265 17
2004-07-14 07:14:48 51°14.347 2°43.071 271.4 13.5 266 17
2004-07-14 07:14:52 51°14.345 2°43.047 271.4 13.6 265 17
2004-07-14 07:14:56 51°14.345 2°43.023 271.5 13.5 267 17.2
2004-07-14 07:15:01 51°14.343 2°42.993 271.4 13.5 264 17.2
2004-07-14 07:15:06 51°14.342 2°42.963 271.1 13.6 266 17.2
2004-07-14 07:15:12 51°14.34 2°42.928 271.7 13.5 265 17.1
2004-07-14 07:15:21 51°14.337 2°42.874 271.3 13.6 265 17.2
2004-07-14 07:15:28 51°14.336 2°42.833 271.8 13.5 267 17.4
2004-07-14 07:15:32 51°14.334 2°42.809 271.7 13.5 265 17.4
2004-07-14 07:15:36 51°14.333 2°42.785 271.4 13.5 267 17.4
2004-07-14 07:15:41 51°14.332 2°42.755 272.1 13.5 265 17.5
2004-07-14 07:15:48 51°14.33 2°42.714 271.7 13.4 267 17.6
2004-07-14 07:15:52 51°14.329 2°42.69 271.3 13.5 266 17.5
2004-07-14 07:15:56 51°14.328 2°42.666 271.3 13.5 266 17.5
2004-07-14 07:16:01 51°14.326 2°42.637 271.4 13.4 265 17.7
2004-07-14 07:16:06 51°14.325 2°42.607 271.7 13.3 267 17.5
2004-07-14 07:16:12 51°14.324 2°42.572 271.5 13.5 267 17.5
2004-07-14 07:16:16 51°14.323 2°42.548 271.7 13.4 266 17.6
2004-07-14 07:16:21 51°14.321 2°42.519 271.6 13.3 266 17.5
2004-07-14 07:16:28 51°14.319 2°42.477 271.1 13.5 265 17.5
2004-07-14 07:16:30 51°14.319 2°42.465 271.3 13.4 266 17.5
2004-07-14 07:16:36 51°14.317 2°42.43 271.6 13.3 266 17.6
2004-07-14 07:16:41 51°14.316 2°42.4 271.5 13.5 266 17.5
2004-07-14 07:16:48 51°14.315 2°42.358 271.4 13.5 266 17.5
2004-07-14 07:16:52 51°14.313 2°42.335 272 13.3 266 17.6
2004-07-14 07:16:56 51°14.313 2°42.311 271.6 13.4 266 17.5
2004-07-14 07:17:01 51°14.311 2°42.282 271.4 13.5 266 17.6
2004-07-14 07:17:06 51°14.31 2°42.252 271.8 13.4 267 17.7
2004-07-14 07:17:12 51°14.309 2°42.216 272 13.3 266 17.7
2004-07-14 07:17:16 51°14.309 2°42.193 272.1 13.4 267 17.8
2004-07-14 07:17:21 51°14.307 2°42.163 272 13.4 266 17.8
2004-07-14 07:17:28 51°14.306 2°42.122 271.5 13.3 266 17.9
2004-07-14 07:17:32 51°14.305 2°42.098 271.6 13.3 266 18.1
2004-07-14 07:17:36 51°14.304 2°42.075 271.4 13.3 266 17.8
2004-07-14 07:17:41 51°14.302 2°42.045 271.2 13.3 266 17.9
2004-07-14 07:17:48 51°14.301 2°42.005 271.4 13.3 266 17.9
2004-07-14 07:17:50 51°14.3 2°41.993 271 13.3 266 17.7
2004-07-14 07:17:56 51°14.298 2°41.958 271 13.4 266 17.8
2004-07-14 07:18:01 51°14.297 2°41.928 271.2 13.3 266 17.7
2004-07-14 07:18:08 51°14.295 2°41.887 270.7 13.3 265 17.5
2004-07-14 07:18:12 51°14.294 2°41.864 271.4 13.2 265 17.3
2004-07-14 07:18:16 51°14.293 2°41.841 271.2 13.3 267 17
2004-07-14 07:18:21 51°14.291 2°41.812 271.4 13.3 266 17
2004-07-14 07:18:26 51°14.29 2°41.783 271.3 13.2 267 16.9
2004-07-14 07:18:32 51°14.289 2°41.748 271.4 13.2 266 16.9
2004-07-14 07:18:36 51°14.288 2°41.724 271.2 13.3 266 16.8
2004-07-14 07:18:41 51°14.287 2°41.695 272.1 13.2 268 16.5
2004-07-14 07:18:48 51°14.286 2°41.655 270.7 13.3 263 16.5
2004-07-14 07:18:52 51°14.284 2°41.631 271.7 13.1 265 16.3
2004-07-14 07:18:56 51°14.283 2°41.608 271.2 13.2 266 16.2
2004-07-14 07:19:01 51°14.282 2°41.579 271.4 13.2 267 16.2
2004-07-14 07:19:08 51°14.28 2°41.538 271.7 13.1 266 16
2004-07-14 07:19:12 51°14.279 2°41.515 271 13.1 266 15.8
2004-07-14 07:19:16 51°14.279 2°41.492 271.1 13.2 267 15.7
2004-07-14 07:19:21 51°14.277 2°41.463 271.4 13.3 266 15.7
2004-07-14 07:19:28 51°14.276 2°41.422 271.2 13.2 266 15.5
2004-07-14 07:19:32 51°14.274 2°41.399 270.7 13.2 264 15.4
2004-07-14 07:19:37 51°14.274 2°41.37 270.4 13.3 268 15.3
2004-07-14 07:19:41 51°14.272 2°41.347 271.1 13.2 264 15.3
2004-07-14 07:19:48 51°14.271 2°41.306 271.4 13.2 268 15.1
2004-07-14 07:19:52 51°14.27 2°41.283 271 13.1 267 15.1
2004-07-14 07:19:56 51°14.269 2°41.259 271.2 13.2 266 14.9
2004-07-14 07:20:01 51°14.268 2°41.23 271.2 13.3 267 14.8
2004-07-14 07:20:05 51°14.267 2°41.207 271.4 13.3 266 14.9
2004-07-14 07:20:12 51°14.265 2°41.166 271.4 13.1 266 15.1
2004-07-14 07:20:16 51°14.264 2°41.143 271 13.2 265 15.2
2004-07-14 07:20:21 51°14.263 2°41.113 271.2 13.3 267 15.2
2004-07-14 07:20:24 51°14.262 2°41.096 271.1 13.2 265 15.2
2004-07-14 07:20:32 51°14.261 2°41.049 271.3 13.1 267 15
2004-07-14 07:20:36 51°14.26 2°41.026 271.6 13.1 266 14
2004-07-14 07:20:41 51°14.259 2°40.997 271.4 13.1 267 14.3
2004-07-14 07:20:48 51°14.257 2°40.957 271.6 13.2 266 14.9
2004-07-14 07:20:52 51°14.256 2°40.934 271.6 13.1 266 14.8
2004-07-14 07:20:56 51°14.256 2°40.911 271.4 13.1 268 15
2004-07-14 07:21:01 51°14.254 2°40.881 271.6 13.2 266 15.2
2004-07-14 07:21:08 51°14.253 2°40.841 271.5 13.3 267 15.5
2004-07-14 07:21:12 51°14.252 2°40.818 272 13.1 266 15.5
2004-07-14 07:21:16 51°14.251 2°40.794 271 13.3 266 15.4
2004-07-14 07:21:21 51°14.25 2°40.765 271.9 13.1 268 15.5
2004-07-14 07:21:28 51°14.248 2°40.724 270.9 13.2 264 15
2004-07-14 07:21:32 51°14.248 2°40.701 271.5 13.1 268 14.6
2004-07-14 07:21:36 51°14.246 2°40.678 271.7 13.1 265 14.2
2004-07-14 07:21:41 51°14.245 2°40.649 271.1 13.1 267 13.8
2004-07-14 07:21:48 51°14.244 2°40.609 271.5 13.2 266 13.8
2004-07-14 07:21:52 51°14.243 2°40.586 271.8 13 266 13.7
2004-07-14 07:21:57 51°14.242 2°40.557 271.2 13.1 266 13.8
2004-07-14 07:22:01 51°14.241 2°40.534 271.3 13.2 267 14.2
2004-07-14 07:22:08 51°14.239 2°40.494 271.3 13.2 266 14.3
2004-07-14 07:22:12 51°14.238 2°40.471 271.9 13 265 14.5
2004-07-14 07:22:16 51°14.237 2°40.447 270.7 13.2 266 14.6
2004-07-14 07:22:21 51°14.237 2°40.418 271.4 13.2 268 14.8
2004-07-14 07:22:28 51°14.235 2°40.378 272.1 13 266 15
2004-07-14 07:22:32 51°14.234 2°40.355 270.9 13.2 266 14.9
2004-07-14 07:22:36 51°14.233 2°40.332 271.4 13.1 267 14.7
2004-07-14 07:22:41 51°14.232 2°40.303 271.7 13 267 14.8
2004-07-14 07:22:46 51°14.231 2°40.274 271.2 13.1 266 14.4
2004-07-14 07:22:52 51°14.23 2°40.24 271.4 13 267 14.3
2004-07-14 07:22:56 51°14.229 2°40.217 272.1 12.9 266 14.2
2004-07-14 07:23:01 51°14.227 2°40.188 271.3 12.9 266 13.2
2004-07-14 07:23:08 51°14.226 2°40.148 271.2 13 267 11.8
2004-07-14 07:23:12 51°14.225 2°40.125 270.8 13 268 12.6
2004-07-14 07:23:16 51°14.224 2°40.103 272.1 12.8 266 13.8
2004-07-14 07:23:21 51°14.223 2°40.074 271 12.9 266 14.2
2004-07-14 07:23:26 51°14.222 2°40.045 271.1 13.1 267 14.4
2004-07-14 07:23:32 51°14.221 2°40.011 271.6 13 268 14.5
2004-07-14 07:23:36 51°14.22 2°39.988 271.8 12.9 266 14.4
2004-07-14 07:23:41 51°14.22 2°39.96 271.2 12.9 267 14.3
2004-07-14 07:23:46 51°14.219 2°39.931 271.9 13 267 14.2
2004-07-14 07:23:52 51°14.217 2°39.897 271.4 13 267 13.9
2004-07-14 07:23:56 51°14.216 2°39.873 271.1 13 265 13.9
2004-07-14 07:24:01 51°14.215 2°39.845 271 13 267 13.7
2004-07-14 07:24:08 51°14.213 2°39.805 271.5 12.9 267 13.7
2004-07-14 07:24:12 51°14.212 2°39.782 271.2 13.1 266 13.8
2004-07-14 07:24:17 51°14.211 2°39.753 271.5 12.9 268 14
2004-07-14 07:24:21 51°14.21 2°39.73 271.8 13 266 14
2004-07-14 07:24:28 51°14.209 2°39.69 271 13.1 267 14.1
2004-07-14 07:24:32 51°14.208 2°39.667 272.1 12.8 266 14.1
2004-07-14 07:24:36 51°14.207 2°39.644 271.2 13 266 14.1
2004-07-14 07:24:41 51°14.206 2°39.615 270.8 13.2 267 14.1
2004-07-14 07:24:48 51°14.204 2°39.576 272.1 12.9 266 14.3
2004-07-14 07:24:52 51°14.203 2°39.552 270.9 13 266 14.1
2004-07-14 07:24:57 51°14.202 2°39.524 271.1 13.1 267 13.9
2004-07-14 07:25:01 51°14.201 2°39.501 271.4 13 266 13.8
2004-07-14 07:25:08 51°14.199 2°39.461 271 13 265 14
2004-07-14 07:25:12 51°14.198 2°39.437 271 13.1 264 13.7
2004-07-14 07:25:17 51°14.197 2°39.409 270.7 13.1 267 13.9
2004-07-14 07:25:21 51°14.196 2°39.386 271.5 13 266 13.9
2004-07-14 07:25:28 51°14.194 2°39.346 271.1 13 266 13.7
2004-07-14 07:25:33 51°14.193 2°39.316 270.8 13.2 267 13.9
2004-07-14 07:25:36 51°14.192 2°39.299 271.6 13.1 265 13.9
2004-07-14 07:25:41 51°14.191 2°39.27 271.7 13 266 13.8
2004-07-14 07:25:45 51°14.19 2°39.247 271.3 13 265 13.8
2004-07-14 07:25:52 51°14.188 2°39.207 271.4 13.1 266 13.7
2004-07-14 07:25:57 51°14.187 2°39.178 271.4 13.1 266 13.6
2004-07-14 07:26:02 51°14.186 2°39.149 271.6 13.1 266 13.3
2004-07-14 07:26:08 51°14.184 2°39.115 271.8 13.1 267 11.8
2004-07-14 07:26:12 51°14.183 2°39.092 271.7 13 264 12
2004-07-14 07:26:16 51°14.182 2°39.069 271 13 266 11.9
2004-07-14 07:26:21 51°14.179 2°39.04 269.3 13 262 12.3
2004-07-14 07:26:28 51°14.175 2°39 267.3 13.1 261 12.5
2004-07-14 07:26:29 51°14.174 2°38.995 265.2 13.1 259 12.7
2004-07-14 07:26:36 51°14.169 2°38.955 264.1 13.2 258 12.9
2004-07-14 07:26:42 51°14.164 2°38.921 263.3 13.2 257 13.1
2004-07-14 07:26:48 51°14.159 2°38.886 262 13.2 257 13
2004-07-14 07:26:52 51°14.155 2°38.864 262.1 13.2 256 12
2004-07-14 07:27:01 51°14.148 2°38.813 261.7 13.1 257 12.8
2004-07-14 07:27:06 51°14.143 2°38.785 261.2 13.1 255 13.1
2004-07-14 07:27:12 51°14.137 2°38.751 260.6 13.3 254 13.3
2004-07-14 07:27:17 51°14.132 2°38.723 260.2 13.3 254 13.8
2004-07-14 07:27:21 51°14.128 2°38.7 259.4 13.3 255 14.1
2004-07-14 07:27:26 51°14.123 2°38.672 259.6 13.2 254 14.2
2004-07-14 07:27:32 51°14.117 2°38.638 259.4 13.3 253 14.8
2004-07-14 07:27:36 51°14.113 2°38.616 259.3 13.3 255 15
2004-07-14 07:27:41 51°14.108 2°38.588 259.6 13.2 254 15.4
2004-07-14 07:27:48 51°14.102 2°38.548 259.1 13.3 254 15.7
2004-07-14 07:27:52 51°14.097 2°38.525 259.8 13.3 253 16
2004-07-14 07:27:56 51°14.094 2°38.503 259.7 13.3 256 16.1
2004-07-14 07:28:01 51°14.088 2°38.474 259.5 13.3 253 16.4
2004-07-14 07:28:08 51°14.082 2°38.435 258.6 13.3 256 16.7
2004-07-14 07:28:12 51°14.077 2°38.412 259.3 13.3 254 16.6
2004-07-14 07:28:17 51°14.073 2°38.384 259.8 13.2 256 16.7
2004-07-14 07:28:21 51°14.069 2°38.361 259.8 13.3 254 17.1
2004-07-14 07:28:26 51°14.064 2°38.333 259.6 13.3 256 17.3
2004-07-14 07:28:32 51°14.058 2°38.299 259.8 13.2 254 17.5
2004-07-14 07:28:36 51°14.055 2°38.276 259.6 13.3 255 17.7
2004-07-14 07:28:41 51°14.05 2°38.248 259.5 13.3 255 17.6
2004-07-14 07:28:48 51°14.043 2°38.208 259.8 13.3 255 17.7
2004-07-14 07:28:49 51°14.042 2°38.202 259.3 13.2 255 17.9
2004-07-14 07:28:57 51°14.033 2°38.158 258.7 13.3 251 17.9
2004-07-14 07:29:01 51°14.029 2°38.135 257.2 13.3 254 17.7
2004-07-14 07:29:08 51°14.021 2°38.096 256.8 13.4 251 17.4
2004-07-14 07:29:12 51°14.017 2°38.073 256.7 13.3 252 17.7
2004-07-14 07:29:16 51°14.012 2°38.051 256.4 13.3 251 17.9
2004-07-14 07:29:21 51°14.006 2°38.023 256.2 13.3 252 18.3
2004-07-14 07:29:28 51°13.997 2°37.984 255.9 13.4 251 18.2
2004-07-14 07:29:32 51°13.992 2°37.962 255.5 13.4 250 18.4
2004-07-14 07:29:36 51°13.988 2°37.94 255.4 13.3 252 18.3
2004-07-14 07:29:41 51°13.981 2°37.912 255.4 13.3 250 14.3
2004-07-14 07:29:46 51°13.976 2°37.884 255.2 13.3 252 15.9
2004-07-14 07:29:52 51°13.968 2°37.851 255.4 13.3 251 17.2
2004-07-14 07:29:58 51°13.962 2°37.817 255.4 13.3 252 17.9
2004-07-14 07:30:02 51°13.957 2°37.795 256.1 13.3 251 17.9
2004-07-14 07:30:08 51°13.95 2°37.762 255.4 13.4 251 18.3
2004-07-14 07:30:12 51°13.945 2°37.739 255.5 13.3 252 18.6
2004-07-14 07:30:17 51°13.939 2°37.711 255.5 13.4 250 18.8
2004-07-14 07:30:22 51°13.933 2°37.683 255.5 13.3 253 18.9
2004-07-14 07:30:26 51°13.928 2°37.661 255.8 13.3 251 19
2004-07-14 07:30:32 51°13.922 2°37.627 255.6 13.4 253 19.1
2004-07-14 07:30:36 51°13.917 2°37.605 256 13.4 251 19.3
2004-07-14 07:30:42 51°13.91 2°37.571 255.6 13.4 251 19.6
2004-07-14 07:30:48 51°13.903 2°37.538 255.8 13.4 252 19.7
2004-07-14 07:30:53 51°13.897 2°37.51 255.5 13.5 251 19.6
2004-07-14 07:30:57 51°13.892 2°37.487 255.8 13.4 253 19.7
2004-07-14 07:31:02 51°13.887 2°37.459 256.7 13.3 252 19.8
2004-07-14 07:31:06 51°13.882 2°37.437 255.9 13.4 252 20.2
2004-07-14 07:31:12 51°13.875 2°37.403 256.3 13.3 252 20.2
2004-07-14 07:31:16 51°13.871 2°37.381 256.7 13.2 252 20.3
2004-07-14 07:31:21 51°13.864 2°37.353 254.7 13.4 249 20.4
2004-07-14 07:31:25 51°13.858 2°37.331 252.2 13.5 247 20.2
2004-07-14 07:31:32 51°13.847 2°37.294 250.9 13.3 244 20.6
2004-07-14 07:31:36 51°13.841 2°37.273 248.3 13.5 244 20.9
2004-07-14 07:31:41 51°13.833 2°37.246 248.2 13.5 245 20.1
2004-07-14 07:31:48 51°13.82 2°37.21 246.7 13.4 242 19.8
2004-07-14 07:31:52 51°13.813 2°37.189 245.4 13.3 242 19.6
2004-07-14 07:31:56 51°13.806 2°37.168 245.2 13.5 240 19.7
2004-07-14 07:32:01 51°13.797 2°37.142 244.4 13.4 242 19.6
2004-07-14 07:32:05 51°13.789 2°37.122 243.6 13.3 239 20.1
2004-07-14 07:32:17 51°13.767 2°37.06 244.1 13.5 240 20.3
2004-07-14 07:32:24 51°13.754 2°37.022 243.5 13.5 239 20.6
2004-07-14 07:32:28 51°13.747 2°37.001 244.2 13.4 241 20.5
2004-07-14 07:32:33 51°13.738 2°36.975 244.5 13.4 240 20.7
2004-07-14 07:32:37 51°13.731 2°36.954 244 13.4 242 20.8
2004-07-14 07:32:42 51°13.721 2°36.928 244 13.5 239 19.2
2004-07-14 07:32:48 51°13.71 2°36.897 243.8 13.3 239 19.5
2004-07-14 07:32:52 51°13.702 2°36.877 242.9 13.3 239 20
2004-07-14 07:32:57 51°13.693 2°36.851 242.4 13.5 239 19.6
2004-07-14 07:33:04 51°13.68 2°36.815 242.6 13.5 239 19.9
2004-07-14 07:33:08 51°13.672 2°36.795 242.8 13.3 239 20.1
2004-07-14 07:33:13 51°13.662 2°36.77 241.9 13.5 237 19.9
2004-07-14 07:33:16 51°13.656 2°36.755 242.4 13.3 242 19.9
2004-07-14 07:33:24 51°13.641 2°36.716 242.8 13.3 238 19.9
2004-07-14 07:33:28 51°13.634 2°36.695 241.7 13.4 241 19.9
2004-07-14 07:33:32 51°13.626 2°36.674 242.4 13.4 238 19.8
2004-07-14 07:33:37 51°13.617 2°36.648 241.9 13.4 239 19.6
2004-07-14 07:33:44 51°13.603 2°36.612 242.6 13.3 240 19.6
2004-07-14 07:33:48 51°13.596 2°36.591 242.7 13.5 239 19.3
2004-07-14 07:33:53 51°13.587 2°36.565 242.3 13.4 240 19.2
2004-07-14 07:33:57 51°13.579 2°36.545 242.9 13.3 239 19.3
2004-07-14 07:34:02 51°13.57 2°36.519 242.7 13.3 239 18.9
2004-07-14 07:34:08 51°13.558 2°36.489 242.3 13.5 239 18.9
2004-07-14 07:34:12 51°13.551 2°36.469 242.7 13.4 241 18.8
2004-07-14 07:34:17 51°13.541 2°36.444 242.9 13.3 239 18.9
2004-07-14 07:34:24 51°13.528 2°36.408 242.7 13.4 240 18.6
2004-07-14 07:34:28 51°13.521 2°36.388 242.6 13.4 240 18.6
2004-07-14 07:34:33 51°13.511 2°36.363 243.1 13.4 239 18.4
2004-07-14 07:34:37 51°13.503 2°36.343 242.7 13.3 240 18.5
2004-07-14 07:34:44 51°13.49 2°36.308 242.4 13.3 238 18.3
2004-07-14 07:34:48 51°13.482 2°36.287 241.5 13.4 240 18.2
2004-07-14 07:34:53 51°13.472 2°36.263 241.6 13.3 237 18.2
2004-07-14 07:34:57 51°13.464 2°36.243 240.9 13.3 238 18.2
2004-07-14 07:35:02 51°13.455 2°36.217 240.9 13.4 238 18.1
2004-07-14 07:35:08 51°13.442 2°36.187 240.5 13.4 237 17.9
2004-07-14 07:35:13 51°13.432 2°36.162 240.2 13.3 238 17.9
2004-07-14 07:35:17 51°13.425 2°36.142 240.5 13.2 238 18
2004-07-14 07:35:22 51°13.414 2°36.118 240.6 13.3 238 17.8
2004-07-14 07:35:28 51°13.403 2°36.087 240.8 13.3 239 17.8
2004-07-14 07:35:33 51°13.392 2°36.063 240.8 13.3 239 17.9
2004-07-14 07:35:37 51°13.385 2°36.045 240.3 13.3 239 17.8
2004-07-14 07:35:44 51°13.37 2°36.013 240.8 13.3 236 17.8
2004-07-14 07:35:48 51°13.362 2°35.993 240.5 13.4 237 17.7
2004-07-14 07:35:53 51°13.352 2°35.967 240.5 13.4 237 17.8
2004-07-14 07:35:57 51°13.345 2°35.947 240.9 13.3 239 17.7
2004-07-14 07:36:04 51°13.331 2°35.912 240.8 13.3 237 17.8
2004-07-14 07:36:08 51°13.323 2°35.892 241.1 13.2 238 17.8
2004-07-14 07:36:13 51°13.313 2°35.868 241 13.3 237 17.6
2004-07-14 07:36:17 51°13.305 2°35.847 239.9 13.5 236 17.7
2004-07-14 07:36:21 51°13.297 2°35.827 241.6 13.1 238 17.9
2004-07-14 07:36:28 51°13.284 2°35.793 240.8 13.3 238 17.9
2004-07-14 07:36:32 51°13.276 2°35.772 240.7 13.4 238 17.6
2004-07-14 07:36:37 51°13.266 2°35.747 241.7 13.3 239 17.8
2004-07-14 07:36:44 51°13.252 2°35.712 241.1 13.3 237 17.7
2004-07-14 07:36:48 51°13.245 2°35.692 241 13.4 239 17.6
2004-07-14 07:36:52 51°13.237 2°35.672 241.4 13.4 237 17.5
2004-07-14 07:36:56 51°13.229 2°35.652 240.9 13.4 239 17.3
2004-07-14 07:37:04 51°13.213 2°35.612 241.2 13.4 237 17.4
2004-07-14 07:37:08 51°13.205 2°35.592 241.2 13.3 237 17.7
2004-07-14 07:37:12 51°13.197 2°35.574 239.9 13.3 234 17.7
2004-07-14 07:37:17 51°13.186 2°35.55 237.8 13.2 234 17.6
2004-07-14 07:37:22 51°13.174 2°35.526 236.4 13.3 233 17.3
2004-07-14 07:37:28 51°13.161 2°35.498 236 13.3 232 17.5
2004-07-14 07:37:34 51°13.147 2°35.472 235.4 13.1 231 17.6
2004-07-14 07:37:37 51°13.14 2°35.458 234.3 13.1 231 17.3
2004-07-14 07:37:44 51°13.124 2°35.426 233.9 13.3 232 17.3
2004-07-14 07:37:48 51°13.115 2°35.407 233.6 13.3 232 17.3
2004-07-14 07:37:54 51°13.1 2°35.382 234.4 13.1 230 17.2
2004-07-14 07:37:58 51°13.091 2°35.364 232.9 13.1 229 17
2004-07-14 07:38:04 51°13.076 2°35.338 232.2 13.3 230 17
2004-07-14 07:38:08 51°13.066 2°35.321 231.4 13.1 228 16.8
2004-07-14 07:38:12 51°13.056 2°35.304 230.1 13.3 226 16.9
2004-07-14 07:38:16 51°13.046 2°35.286 230.3 13.2 228 16.5
2004-07-14 07:38:24 51°13.026 2°35.253 230.6 13 227 16.5
2004-07-14 07:38:28 51°13.016 2°35.235 229.7 13.5 226 16.1
2004-07-14 07:38:32 51°13.006 2°35.217 230 13.5 229 16
2004-07-14 07:38:37 51°12.993 2°35.196 230.8 13.4 227 15.6
2004-07-14 07:38:44 51°12.976 2°35.166 229.7 13.3 226 15.2
2004-07-14 07:38:48 51°12.965 2°35.15 230 13.1 225 14.9
2004-07-14 07:38:53 51°12.952 2°35.129 227.9 13.6 224 14.3
2004-07-14 07:38:57 51°12.942 2°35.111 229.3 13.7 228 14.1
2004-07-14 07:39:04 51°12.924 2°35.083 229.6 13.2 225 14
2004-07-14 07:39:09 51°12.911 2°35.062 228.2 13.1 225 13.3
2004-07-14 07:39:14 51°12.898 2°35.041 227.9 13.3 225 13.4
2004-07-14 07:39:17 51°12.89 2°35.028 228.6 13.4 225 13
2004-07-14 07:39:24 51°12.872 2°34.999 228.6 13.4 224 12.9
2004-07-14 07:39:28 51°12.862 2°34.983 229 13 224 13
2004-07-14 07:39:34 51°12.846 2°34.958 228.1 13.1 225 12.8
2004-07-14 07:39:37 51°12.838 2°34.946 228.4 13.3 226 12.6
2004-07-14 07:39:44 51°12.82 2°34.916 228.6 13.6 224 12.9
2004-07-14 07:39:48 51°12.81 2°34.899 229.3 13 226 13
2004-07-14 07:39:53 51°12.798 2°34.879 229.7 12.9 224 12.9
2004-07-14 07:39:57 51°12.787 2°34.863 228.4 13.4 225 13
2004-07-14 07:40:04 51°12.769 2°34.833 228.9 13.4 226 13.2
2004-07-14 07:40:08 51°12.759 2°34.817 229.3 13.3 224 13.1
2004-07-14 07:40:13 51°12.746 2°34.796 228.5 13.3 225 13.3
2004-07-14 07:40:17 51°12.735 2°34.78 229.1 13.1 226 13.6
2004-07-14 07:40:24 51°12.717 2°34.751 228.8 13 225 13.8
2004-07-14 07:40:28 51°12.707 2°34.734 227.6 13.4 226 14.1
2004-07-14 07:40:34 51°12.691 2°34.709 228.8 13.3 225 14.2
2004-07-14 07:40:37 51°12.683 2°34.697 229.1 13.1 225 14.7
2004-07-14 07:40:44 51°12.666 2°34.668 228.5 13 225 14.6
2004-07-14 07:40:48 51°12.655 2°34.652 228.3 13.3 225 14.6
2004-07-14 07:40:52 51°12.645 2°34.635 229 13.3 226 15
2004-07-14 07:40:57 51°12.632 2°34.614 228.9 13.3 225 15.3
2004-07-14 07:41:04 51°12.614 2°34.585 228.6 13.2 225 15.3
2004-07-14 07:41:08 51°12.603 2°34.569 228.6 13.2 224 15.2
2004-07-14 07:41:13 51°12.59 2°34.548 228 13.4 225 15.5
2004-07-14 07:41:16 51°12.582 2°34.535 228.9 13.4 225 15.4
2004-07-14 07:41:24 51°12.562 2°34.502 229.1 13.3 225 15.8
2004-07-14 07:41:28 51°12.552 2°34.486 228.4 13 225 15.9
2004-07-14 07:41:32 51°12.541 2°34.469 227.9 13.4 225 15.8
2004-07-14 07:41:37 51°12.528 2°34.448 229.3 13.5 227 15.8
2004-07-14 07:41:44 51°12.51 2°34.419 229.6 13.3 226 16.1
2004-07-14 07:41:48 51°12.5 2°34.402 229.1 13 226 16.1
2004-07-14 07:41:53 51°12.487 2°34.382 229 13.2 225 16.2
2004-07-14 07:41:57 51°12.477 2°34.365 228.5 13.4 227 16.3
2004-07-14 07:42:04 51°12.459 2°34.336 229.7 13.3 226 16.4
2004-07-14 07:42:08 51°12.449 2°34.319 228.6 13.2 225 16.4
2004-07-14 07:42:12 51°12.439 2°34.302 229.2 13 227 16.6
2004-07-14 07:42:17 51°12.426 2°34.282 230.1 13 225 16.7
2004-07-14 07:42:22 51°12.413 2°34.261 228.6 13.4 224 16.7
2004-07-14 07:42:28 51°12.398 2°34.236 230.4 13.1 225 16.9
2004-07-14 07:42:32 51°12.388 2°34.219 229.3 13 225 17.1
2004-07-14 07:42:37 51°12.375 2°34.199 229.1 13.1 226 17
2004-07-14 07:42:44 51°12.357 2°34.17 228.6 13.3 224 17.3
2004-07-14 07:42:47 51°12.349 2°34.157 228.7 13.3 225 17.5
2004-07-14 07:42:53 51°12.334 2°34.132 229.3 13.1 227 17.7
2004-07-14 07:42:58 51°12.321 2°34.112 229.3 13.1 225 17.6
2004-07-14 07:43:04 51°12.306 2°34.087 228.3 13.2 224 17.9
2004-07-14 07:43:08 51°12.296 2°34.071 229.4 13.2 225 18.1
2004-07-14 07:43:13 51°12.283 2°34.05 229 13.1 226 18.2
2004-07-14 07:43:16 51°12.276 2°34.038 228.9 13.1 225 18.4
2004-07-14 07:43:23 51°12.257 2°34.009 228.8 13.2 225 18.4
2004-07-14 07:43:28 51°12.245 2°33.988 229 13.1 226 18.6
2004-07-14 07:43:33 51°12.232 2°33.967 229.9 12.9 226 18.7
2004-07-14 07:43:38 51°12.219 2°33.947 228.6 13.1 224 18.7
2004-07-14 07:43:44 51°12.204 2°33.921 228.9 13.3 227 18.7
2004-07-14 07:43:47 51°12.196 2°33.909 229.8 13 225 18.9
2004-07-14 07:43:53 51°12.181 2°33.884 228.9 13 226 18.9
2004-07-14 07:43:57 51°12.171 2°33.868 229.5 13.1 226 19.1
2004-07-14 07:44:04 51°12.153 2°33.838 229.7 13.1 225 19.1
2004-07-14 07:44:08 51°12.142 2°33.822 229.4 13.1 225 19.1
2004-07-14 07:44:11 51°12.135 2°33.809 229.4 13 226 19.3
2004-07-14 07:44:17 51°12.119 2°33.785 228.8 13 226 19.2
2004-07-14 07:44:23 51°12.104 2°33.76 229.1 13 227 19.2
2004-07-14 07:44:28 51°12.091 2°33.739 228.6 13.2 226 19.3
2004-07-14 07:44:32 51°12.082 2°33.723 229.8 13 227 19.3
2004-07-14 07:44:37 51°12.069 2°33.703 229.4 13 224 19.4
2004-07-14 07:44:44 51°12.051 2°33.674 229 13.1 226 19.3
2004-07-14 07:44:48 51°12.041 2°33.657 229.3 13.2 227 19.5
2004-07-14 07:44:53 51°12.028 2°33.636 230 13.1 227 19.4
2004-07-14 07:44:57 51°12.018 2°33.62 230 12.8 225 19.4
2004-07-14 07:45:03 51°12.005 2°33.598 229.1 11.6 227 19.5
2004-07-14 07:45:08 51°11.994 2°33.582 229.7 10.4 223 19.5
2004-07-14 07:45:12 51°11.988 2°33.569 229.3 9.7 228 19.6
2004-07-14 07:45:17 51°11.979 2°33.555 230.8 8.8 226 19.6
2004-07-14 07:45:23 51°11.97 2°33.538 231.8 8.6 227 19.5
2004-07-14 07:45:27 51°11.964 2°33.528 233.6 7.6 229 19.5
2004-07-14 07:45:32 51°11.958 2°33.516 235.5 7.1 233 19.6
2004-07-14 07:45:37 51°11.953 2°33.504 238.6 6.7 233 19.6
2004-07-14 07:45:43 51°11.947 2°33.49 241.1 6.3 236 19.5
2004-07-14 07:45:48 51°11.943 2°33.48 243.8 5.6 240 19.7
2004-07-14 07:45:53 51°11.94 2°33.47 245.8 5.3 238 19.9
2004-07-14 07:45:58 51°11.937 2°33.46 247.6 4.9 243 19.8
2004-07-14 07:46:03 51°11.934 2°33.452 248.8 4.7 240 19.9
2004-07-14 07:46:08 51°11.931 2°33.444 249.9 4.2 240 19.8
2004-07-14 07:46:12 51°11.929 2°33.438 250.5 3.9 246 20
2004-07-14 07:46:17 51°11.927 2°33.431 250.4 3.7 243 20.1
2004-07-14 07:46:23 51°11.925 2°33.422 250.5 3.3 246 20.1
2004-07-14 07:46:28 51°11.923 2°33.416 250.7 3.1 242 20.2
2004-07-14 07:46:33 51°11.921 2°33.411 250.2 2.9 243 20.2
2004-07-14 07:46:37 51°11.92 2°33.407 249.3 2.8 245 20.1
2004-07-14 07:46:41 51°11.918 2°33.403 248.3 2.6 238 20.3
2004-07-14 07:46:47 51°11.916 2°33.397 247.5 2.3 237 20.2
2004-07-14 07:46:52 51°11.915 2°33.393 246 2.1 239 20.3
2004-07-14 07:46:57 51°11.913 2°33.39 244.7 2 231 20.4
2004-07-14 07:47:03 51°11.911 2°33.386 243.1 1.9 232 20.4
2004-07-14 07:47:08 51°11.909 2°33.383 240.9 1.8 225 20.3
2004-07-14 07:47:13 51°11.908 2°33.381 238.8 1.6 220 20.3
2004-07-14 07:47:17 51°11.906 2°33.38 236.6 1.7 208 20.3
2004-07-14 07:47:23 51°11.904 2°33.377 234.1 1.5 211 20.2
2004-07-14 07:47:27 51°11.903 2°33.377 231.5 1.5 199 20.3
2004-07-14 07:47:33 51°11.901 2°33.375 229.3 1.2 211 20.2
2004-07-14 07:47:38 51°11.899 2°33.374 226.9 1.2 196 20.2
2004-07-14 07:47:43 51°11.898 2°33.374 225.2 1.2 200 20.2
2004-07-14 07:47:47 51°11.896 2°33.374 223.1 1.2 183 20.2
2004-07-14 07:47:53 51°11.895 2°33.374 221.1 1 186 20.2
2004-07-14 07:47:57 51°11.893 2°33.374 219 1 167 20.1
2004-07-14 07:48:03 51°11.892 2°33.375 216.5 1 160 20
2004-07-14 07:48:08 51°11.891 2°33.377 214 1.1 141 20
2004-07-14 07:48:11 51°11.89 2°33.377 211.4 0.8 139 20
2004-07-14 07:48:17 51°11.889 2°33.379 208.9 1.2 134 20
2004-07-14 07:48:23 51°11.888 2°33.381 206.3 0.9 133 20
2004-07-14 07:48:28 51°11.887 2°33.383 204.3 1 128 19.9
2004-07-14 07:48:33 51°11.886 2°33.385 202.3 1 126 19.9
2004-07-14 07:48:37 51°11.886 2°33.387 200.4 1 124 19.9
2004-07-14 07:48:43 51°11.885 2°33.389 198.5 1.1 122 19.9
2004-07-14 07:48:48 51°11.884 2°33.391 197.2 1.1 117 19.9
2004-07-14 07:48:52 51°11.884 2°33.393 195.2 1.2 115 20
2004-07-14 07:48:57 51°11.883 2°33.396 193.6 1.3 114 19.8
2004-07-14 07:49:03 51°11.882 2°33.398 192.1 1.3 108 19.7
2004-07-14 07:49:07 51°11.882 2°33.401 189.8 1.1 106 19.7
2004-07-14 07:49:13 51°11.882 2°33.403 187.6 1.1 110 19.5
2004-07-14 07:49:17 51°11.882 2°33.406 185.8 1.4 105 19.5
2004-07-14 07:49:24 51°11.881 2°33.409 183.6 1.2 103 19.6
2004-07-14 07:49:28 51°11.881 2°33.411 182.1 1.2 102 19.6
2004-07-14 07:49:33 51°11.881 2°33.414 180.4 1.1 101 19.7
2004-07-14 07:49:37 51°11.88 2°33.416 178.6 1.4 102 19.6
2004-07-14 07:49:44 51°11.88 2°33.42 176.9 1.3 104 19.6
2004-07-14 07:49:48 51°11.88 2°33.422 176.1 1.2 100 19.6
2004-07-14 07:49:53 51°11.88 2°33.425 175.7 1.2 98 19.6
2004-07-14 07:49:57 51°11.88 2°33.427 174.8 1.2 100 19.6
2004-07-14 07:50:04 51°11.879 2°33.431 173.6 1.2 97 19.5
2004-07-14 07:50:08 51°11.879 2°33.433 172.7 1.2 97 19.4
2004-07-14 07:50:12 51°11.879 2°33.435 171.7 1.2 95 19.5
2004-07-14 07:50:16 51°11.879 2°33.437 170.5 1.2 92 19.5
2004-07-14 07:50:24 51°11.878 2°33.442 169.9 1.3 96 19.4
2004-07-14 07:50:28 51°11.878 2°33.444 169.1 1.4 107 19.3
2004-07-14 07:50:33 51°11.877 2°33.447 168.5 1.4 113 19.3
2004-07-14 07:50:37 51°11.876 2°33.45 168.8 1.6 115 19.3
2004-07-14 07:50:44 51°11.875 2°33.454 169 1.6 117 19.1
2004-07-14 07:50:48 51°11.874 2°33.457 169.2 1.7 121 19.1
2004-07-14 07:50:53 51°11.873 2°33.46 169.9 1.7 126 19.1
2004-07-14 07:50:56 51°11.871 2°33.462 171.2 1.9 134 19.1
2004-07-14 07:51:04 51°11.869 2°33.466 173.4 1.9 137 19
2004-07-14 07:51:08 51°11.867 2°33.468 175.6 1.8 139 18.8
2004-07-14 07:51:13 51°11.865 2°33.471 177.4 2 139 18.8
2004-07-14 07:51:17 51°11.863 2°33.473 179.9 2 141 18.8
2004-07-14 07:51:23 51°11.86 2°33.476 181.7 2 146 18.6
2004-07-14 07:51:28 51°11.858 2°33.478 183.9 1.9 149 18.5
2004-07-14 07:51:32 51°11.856 2°33.479 186.1 1.9 154 18.5
2004-07-14 07:51:37 51°11.854 2°33.481 188.8 2 155 18.5
2004-07-14 07:51:44 51°11.85 2°33.483 191.6 2 155 18.4
2004-07-14 07:51:48 51°11.848 2°33.484 193.9 2 162 18.4
2004-07-14 07:51:53 51°11.845 2°33.486 196.2 2.1 164 18.5
2004-07-14 07:51:57 51°11.843 2°33.486 199.3 1.9 173 18.4
2004-07-14 07:52:03 51°11.84 2°33.487 202.2 2 168 18.2
2004-07-14 07:52:08 51°11.837 2°33.487 204.6 1.9 178 18.3
2004-07-14 07:52:12 51°11.835 2°33.488 206.2 2.1 174 18.3
2004-07-14 07:52:17 51°11.832 2°33.487 207.6 2.1 182 18.2
2004-07-14 07:52:24 51°11.828 2°33.486 208.3 2.2 180 18.1
2004-07-14 07:52:28 51°11.825 2°33.486 209.6 2.3 189 17.9
2004-07-14 07:52:33 51°11.822 2°33.485 210.6 2.4 188 17.9
2004-07-14 07:52:38 51°11.819 2°33.484 211.7 2.4 193 17.8
2004-07-14 07:52:42 51°11.816 2°33.483 212.6 2.5 190 17.6
2004-07-14 07:52:48 51°11.812 2°33.482 213.8 2.6 193 17.5
2004-07-14 07:52:52 51°11.809 2°33.481 214.5 2.6 193 17.6
2004-07-14 07:52:56 51°11.806 2°33.48 215.3 2.6 193 17.3
2004-07-14 07:53:03 51°11.801 2°33.477 215.6 2.6 192 17
2004-07-14 07:53:08 51°11.798 2°33.476 215.7 2.7 195 17
2004-07-14 07:53:11 51°11.796 2°33.475 216 2.7 198 17.1
2004-07-14 07:53:15 51°11.793 2°33.474 216.5 2.8 194 17.1
2004-07-14 07:53:23 51°11.787 2°33.471 217.6 2.7 201 16.6
2004-07-14 07:53:27 51°11.784 2°33.469 217.8 2.7 202 16.6
2004-07-14 07:53:32 51°11.78 2°33.466 219.1 2.8 202 16.5
2004-07-14 07:53:37 51°11.777 2°33.464 220 2.9 203 16.7
2004-07-14 07:53:42 51°11.773 2°33.461 221.3 2.8 207 16.5
2004-07-14 07:53:48 51°11.769 2°33.458 222.5 2.9 211 16.6
2004-07-14 07:53:54 51°11.764 2°33.454 223.9 2.9 207 16.8
2004-07-14 07:53:58 51°11.762 2°33.451 225.1 2.9 212 16.6
2004-07-14 07:54:03 51°11.758 2°33.448 226.6 3 213 16.6
2004-07-14 07:54:08 51°11.755 2°33.444 227.9 3 218 16.6
2004-07-14 07:54:12 51°11.752 2°33.441 229 3 213 16.9
2004-07-14 07:54:17 51°11.749 2°33.436 230 3 219 16.6
2004-07-14 07:54:23 51°11.745 2°33.431 230.8 3.1 217 16.7
2004-07-14 07:54:27 51°11.742 2°33.428 231.7 3.1 220 16.9
2004-07-14 07:54:33 51°11.739 2°33.422 232.8 3.1 221 16.6
2004-07-14 07:54:35 51°11.737 2°33.42 233.4 3.2 222 16.8